Hauptseite
METAR-TAF:

METAR-TAF

Flughäfen :

Flughafen Curaçao

Curaçao, Niederländische Antillen

Breite: 12-12N, Länge: 068-58W, Höhe: 9 m

Beobachtung

Neuester Wetterbericht von vor 41 Minuten, um 22:00 UTC
Wind 14 kt aus Ost/Südost
Temperatur 29°C
Luftfeuchtigkeit 74%
Luftdruck 1012 hPa
Sichtweite 10 km oder mehr
Leicht bewölkt in der Höhe von 1800 ft

METAR: TNCC 202200Z 12014KT 9999 FEW018 29/24 Q1012 NOSIG

Zeit: 18:41 (22:41 UTC)

Prognose

Neuester Wetterbericht von vor 6 Stunden und 51 Minuten, um 15:50 UTC
Gültige Prognose vom 20 um 18 UTC bis 21 um 18 UTC
Wind 14 kt aus Ost/Südost, Böen bis zu 25 kt
Sichtweite 10 km oder mehr
Aufgelockert bewölkt in der Höhe von 2200 ft
Zeitweise
vom 21 um 07 UTC bis 21 um 12 UTC
Wind 12 kt aus Ost/Südost

TAF: TNCC 201550Z 2018/2118 11014G25KT 9999 SCT022 TEMPO 2107/2112 12012KT

Wetterbeobachtungen und Prognosen von mehr als 4000 Flughäfen (METAR und TAF Bericht).

Die verfügbaren Stationen werden durch gelbe und rote Markierungen auf der Karte dargestellt.

Führen Sie die Maus auf sie, um den Namen der Station zu sehen.

Darauf klicken, um die Beobachtung von Wetterbeobachtungen und Prognosen zu sehen.

Um die Karte zu ändern : klicken Sie auf den grünen Tasten mit einem schwarzen Kreuz Zum Vergrößern, auf den grünen Button mit einem Gedankenstrich zu verkleinern, oder auf die grünen Pfeile für benachbarte Karten.


METAR-TAF: